Airfield :
LOGIN :

Register | Disclaimer

   EN    FR    IT 

 










Legend :    VFR   Marginal VFR   IFR   Intensive IFR   Very Intensive IFR
Visi :
Ceiling :
>= 8 km
>= 3000ft
5 to 8 km
1000 to 3000 ft
1500m to 5 km
500 to 1000 ft
800 to 1500m
200 to 500 ft
< 800m
< 200 ft
Symbols :   Thunderstorms  Fog  Heavy snow  Heavy precipitations  Wind > 20 kt
SIGMETs :     Misc.  Thunderstorms  Icing  Turbulence  Mountain Waves  Volcanic Ashes






- Airport Elevation : 485 ft
- IATA code : QSA


LELL - Sabadell

CURRENT METAR :
  • 131030Z 28023G38KT 250V310 9999 FEW040 17/11 Q0999

EXPIRED METARs :
  • 131000Z 28026G39KT 9999 FEW040 17/11 Q0999
  • 130930Z 28021G33KT 9999 FEW040 16/10 Q0998
  • 130900Z 28018G30KT 250V310 9999 FEW040 15/10 Q0999
  • 130830Z 28018KT 9999 FEW040 15/10 Q0999
  • 130800Z 27018KT 9999 FEW040 14/10 Q0998
  • 130730Z 27020G30KT 9999 FEW040 14/10 Q0999

TAF TAF LELL
Valid from the 13 at 09:00 until the 14 at 09:00 UTC


130800Z 1309/1409 28020G33KT 9999 FEW040 TX19/1313Z TN08/1406Z
TEMPO 1310/1314 28030G44KT
BECMG 1319/1321 27015KT
TEMPO 1403/1406 29020G30KT



MET'MAP, your aeronautical weather chart ! - Copyright ORBIFLY December 2007 - Disclaimer

ORBIFLY MET'MAP TEAM :

Programming & Development : Alexandra Zaïnal
Concept & original design : Baudouin d'Aumeries
Assistance for programming : Marc-Olivier Méhu
Technical & hardware support : Manuel Goepfert

Contact : metmap@orbifly.com




SOURCES & CREDITS :

   NOAA